createdAt,value
2023-04-03T00:02:15.082Z,3.6
2023-04-03T00:08:06.713Z,3.5
2023-04-03T00:13:57.852Z,3.4
2023-04-03T00:19:50.059Z,3.2
2023-04-03T00:25:41.769Z,3
2023-04-03T00:31:33.410Z,2.8
2023-04-03T00:37:10.094Z,2.6
2023-04-03T00:43:01.611Z,2.4
2023-04-03T00:48:38.274Z,2.3
2023-04-03T00:54:13.517Z,2.2
2023-04-03T01:00:05.007Z,2.1
2023-04-03T01:05:57.826Z,1.9
2023-04-03T01:11:49.137Z,1.8
2023-04-03T01:17:40.869Z,1.8
2023-04-03T01:23:31.758Z,1.7
2023-04-03T01:29:23.349Z,1.6
2023-04-03T01:35:15.200Z,1.7
2023-04-03T01:41:06.272Z,1.6
2023-04-03T01:46:57.346Z,1.7
2023-04-03T01:52:49.345Z,1.7
2023-04-03T01:58:40.666Z,1.7
2023-04-03T02:04:32.507Z,1.8
2023-04-03T02:10:26.371Z,1.8
2023-04-03T02:16:18.428Z,1.7
2023-04-03T02:22:09.317Z,1.7
2023-04-03T02:28:00.588Z,1.6
2023-04-03T02:33:36.465Z,1.7
2023-04-03T02:39:27.727Z,1.6
2023-04-03T02:45:19.497Z,1.6
2023-04-03T02:51:11.629Z,1.6
2023-04-03T02:57:02.622Z,1.7
2023-04-03T03:02:56.548Z,1.7
2023-04-03T03:08:32.738Z,1.6
2023-04-03T03:14:23.421Z,1.5
2023-04-03T03:20:15.571Z,1.4
2023-04-03T03:26:06.589Z,1.3
2023-04-03T03:31:58.028Z,1.3
2023-04-03T03:37:49.911Z,1.1
2023-04-03T03:43:41.799Z,1.1
2023-04-03T03:49:19.593Z,1
2023-04-03T03:54:55.901Z,0.9
2023-04-03T04:00:47.017Z,0.8
2023-04-03T04:06:40.551Z,0.7
2023-04-03T04:12:31.815Z,0.7
2023-04-03T04:18:07.707Z,0.6
2023-04-03T04:23:42.713Z,0.6
2023-04-03T04:29:33.904Z,0.7
2023-04-03T04:35:25.056Z,0.7
2023-04-03T04:41:17.018Z,0.8
2023-04-03T04:47:08.843Z,0.8
2023-04-03T04:53:09.192Z,0.9
2023-04-03T04:59:00.827Z,1.1
2023-04-03T05:04:54.069Z,1.3
2023-04-03T05:10:30.914Z,1.4
2023-04-03T05:16:21.276Z,1.6
2023-04-03T05:22:13.017Z,1.9
2023-04-03T05:28:04.428Z,2.3
2023-04-03T05:33:57.524Z,2.7
2023-04-03T05:39:51.455Z,3.3
2023-04-03T05:45:44.753Z,4.3
2023-04-03T05:51:36.972Z,5.3
2023-04-03T05:57:29.832Z,6.4
2023-04-03T06:03:22.105Z,7.4
2023-04-03T06:09:17.040Z,8.6
2023-04-03T06:15:09.632Z,9.8
2023-04-03T06:21:00.907Z,11
2023-04-03T06:26:51.884Z,12.1
2023-04-03T06:32:43.796Z,13.3
2023-04-03T06:38:37.759Z,14.5
2023-04-03T06:44:30.301Z,15.8
2023-04-03T06:50:22.440Z,16.9
2023-04-03T06:56:15.053Z,17.9
2023-04-03T07:02:07.794Z,18.8
2023-04-03T07:07:59.972Z,19.4
2023-04-03T07:13:51.207Z,20.1
2023-04-03T07:19:42.730Z,21
2023-04-03T07:25:41.116Z,21.9
2023-04-03T07:31:32.419Z,23.4
2023-04-03T07:37:24.542Z,25.4
2023-04-03T07:43:16.024Z,28.1
2023-04-03T07:49:07.704Z,32.3
2023-04-03T07:54:43.393Z,37.2
2023-04-03T08:00:21.938Z,32.3
2023-04-03T08:06:16.327Z,27.5
2023-04-03T08:12:21.095Z,26.8
2023-04-03T08:23:56.856Z,29
2023-04-03T08:30:01.460Z,30.8
2023-04-03T08:35:38.419Z,33.4
2023-04-03T08:41:30.845Z,36
2023-04-03T08:47:23.860Z,28.9
2023-04-03T08:53:22.204Z,26.6
2023-04-03T08:59:14.481Z,26.7
2023-04-03T09:05:07.801Z,27.5
2023-04-03T09:11:00.344Z,28.8
2023-04-03T09:17:06.339Z,30.2
2023-04-03T09:23:03.683Z,31.1
2023-04-03T09:29:06.639Z,31.1
2023-04-03T09:34:59.670Z,31.3
2023-04-03T09:40:51.590Z,31.8
2023-04-03T09:46:54.809Z,32.9
2023-04-03T09:52:56.841Z,36.2
2023-04-03T09:59:00.364Z,32.5
2023-04-03T10:05:06.559Z,28.4
2023-04-03T10:11:10.124Z,29.1
2023-04-03T10:17:14.790Z,30.1
2023-04-03T10:23:28.555Z,30.1
2023-04-03T10:29:23.193Z,29.2
2023-04-03T10:35:23.055Z,28
2023-04-03T10:41:17.502Z,27.1
2023-04-03T10:47:21.433Z,26.6
2023-04-03T10:53:07.085Z,26.2
2023-04-03T10:59:12.232Z,26.3
2023-04-03T11:05:08.602Z,26.1
2023-04-03T11:10:45.244Z,25.8
2023-04-03T11:16:22.727Z,25.3
2023-04-03T11:22:12.576Z,24.2
2023-04-03T11:28:03.917Z,23.1
2023-04-03T11:33:50.080Z,21.4
2023-04-03T11:39:43.715Z,19.9
2023-04-03T11:45:34.548Z,18.6
2023-04-03T11:52:04.534Z,17.5
2023-04-03T11:58:30.031Z,16.8
2023-04-03T12:05:13.077Z,16
2023-04-03T12:11:35.991Z,15.4
2023-04-03T12:17:59.650Z,14.9
2023-04-03T12:24:31.955Z,14.4
2023-04-03T12:30:28.641Z,14.2
2023-04-03T12:37:13.008Z,13.9
2023-04-03T12:43:43.230Z,13.5
2023-04-03T12:50:12.374Z,13
2023-04-03T12:56:22.234Z,12.6
2023-04-03T13:02:46.492Z,12.3
2023-04-03T13:09:12.938Z,11.9
2023-04-03T13:15:45.812Z,11.5
2023-04-03T13:22:15.746Z,11.2
2023-04-03T13:28:44.100Z,10.9
2023-04-03T13:34:32.828Z,10.8
2023-04-03T13:40:22.248Z,10.6
2023-04-03T13:46:14.120Z,10.4
2023-04-03T13:52:09.119Z,10.2
2023-04-03T13:57:57.348Z,10.1
2023-04-03T14:03:18.196Z,9.9
2023-04-03T14:09:03.210Z,9.8
2023-04-03T14:14:49.852Z,9.8
2023-04-03T14:20:34.081Z,9.6
2023-04-03T14:26:11.201Z,9.5
2023-04-03T14:31:47.985Z,9.3
2023-04-03T14:37:35.291Z,9.2
2023-04-03T14:43:18.394Z,9.1
2023-04-03T14:49:21.368Z,9
2023-04-03T14:55:20.370Z,8.9
2023-04-03T15:00:57.455Z,8.8
2023-04-03T15:06:38.026Z,8.7
2023-04-03T15:18:09.808Z,8.6
2023-04-03T15:23:31.236Z,8.5
2023-04-03T15:28:51.993Z,8.4
2023-04-03T15:34:32.614Z,8.4
2023-04-03T15:40:31.076Z,8.3
2023-04-03T15:46:06.620Z,8.3
2023-04-03T15:51:42.988Z,8.3
2023-04-03T16:03:12.009Z,8.1
2023-04-03T16:08:50.020Z,8.1
2023-04-03T16:14:26.322Z,8
2023-04-03T16:20:02.763Z,7.9
2023-04-03T16:25:39.753Z,7.8
2023-04-03T16:31:17.737Z,7.8
2023-04-03T16:37:12.846Z,7.7
2023-04-03T16:42:55.625Z,7.6
2023-04-03T16:48:50.914Z,7.6
2023-04-03T16:54:44.839Z,7.5
2023-04-03T17:00:26.245Z,7.4
2023-04-03T17:06:22.600Z,7.4
2023-04-03T17:12:21.466Z,7.4
2023-04-03T17:18:17.112Z,7.3
2023-04-03T17:24:11.286Z,7.3
2023-04-03T17:30:04.766Z,7.3
2023-04-03T17:35:47.469Z,7.2
2023-04-03T17:41:44.776Z,7.1
2023-04-03T17:47:42.564Z,7.1
2023-04-03T17:53:41.972Z,7.1
2023-04-03T17:59:41.200Z,7
2023-04-03T18:05:25.076Z,7
2023-04-03T18:11:24.680Z,6.9
2023-04-03T18:17:07.390Z,6.9
2023-04-03T18:23:25.416Z,6.9
2023-04-03T18:29:29.769Z,6.9
2023-04-03T18:35:31.183Z,6.9
2023-04-03T18:41:31.067Z,6.9
2023-04-03T18:47:16.390Z,6.9
2023-04-03T18:53:16.181Z,6.9
2023-04-03T18:59:17.219Z,6.9
2023-04-03T19:05:18.807Z,6.9
2023-04-03T19:11:18.976Z,6.9
2023-04-03T19:17:44.224Z,6.8
2023-04-03T19:23:45.584Z,6.8
2023-04-03T19:29:46.268Z,6.8
2023-04-03T19:35:45.798Z,6.8
2023-04-03T19:41:41.543Z,6.8
2023-04-03T19:47:45.754Z,6.8
2023-04-03T19:53:37.583Z,6.8
2023-04-03T19:59:29.536Z,6.8
2023-04-03T20:05:37.249Z,6.8
2023-04-03T20:11:29.366Z,6.8
2023-04-03T20:17:22.894Z,6.8
2023-04-03T20:23:01.425Z,6.8
2023-04-03T20:29:41.209Z,6.8
2023-04-03T20:35:14.982Z,6.8
2023-04-03T20:41:09.072Z,6.8
2023-04-03T20:47:12.198Z,6.8
2023-04-03T20:53:05.030Z,6.8
2023-04-03T20:59:06.017Z,6.7
2023-04-03T21:04:47.664Z,6.7
2023-04-03T21:10:42.209Z,6.7
2023-04-03T21:16:33.627Z,6.7
2023-04-03T21:22:25.665Z,6.7
2023-04-03T21:28:17.847Z,6.7
2023-04-03T21:34:10.149Z,6.7
2023-04-03T21:39:46.315Z,6.7
2023-04-03T21:45:37.959Z,6.7
2023-04-03T21:51:31.627Z,6.6
2023-04-03T21:57:22.822Z,6.6
2023-04-03T22:03:27.847Z,6.6
2023-04-03T22:09:18.537Z,6.6
2023-04-03T22:14:55.449Z,6.6
2023-04-03T22:20:47.079Z,6.6
2023-04-03T22:26:38.417Z,6.6
2023-04-03T22:32:30.013Z,6.6
2023-04-03T22:38:06.327Z,6.6
2023-04-03T22:43:42.021Z,6.6
2023-04-03T22:49:38.907Z,6.6
2023-04-03T22:55:36.891Z,6.6
2023-04-03T23:01:13.338Z,6.6
2023-04-03T23:07:05.279Z,6.6
2023-04-03T23:12:42.224Z,6.6
2023-04-03T23:18:18.764Z,6.7
2023-04-03T23:24:10.644Z,6.7
2023-04-03T23:30:02.139Z,6.7
2023-04-03T23:35:38.537Z,6.7
2023-04-03T23:41:30.106Z,6.8
2023-04-03T23:47:08.990Z,6.8
2023-04-03T23:52:45.630Z,6.8
2023-04-03T23:58:36.789Z,6.8
